Time;durP1;ratioP1;P1;durP2;ratioP2;P2;SDS_P1;SDS_P2;PMS_P1;PMS_P2;Temp;Humidity;BMP_temperature;BMP_pressure;BME280_temperature;BME280_humidity;BME280_pressure;Samples;Min_cycle;Max_cycle;Signal;HPM_P1;HPM_P2
2023/09/15 14:18:10;;;;;;;28.35;26.25;;;29.80;99.90;;;;;;4959199;23;20206;-84
2023/09/15 14:20:36;;;;;;;28.95;26.63;;;29.60;99.90;;;;;;4917108;29;20032;-84
2023/09/15 14:23:03;;;;;;;28.38;26.17;;;29.30;99.90;;;;;;4884371;29;20031;-85
2023/09/15 14:25:29;;;;;;;29.25;26.90;;;28.90;99.90;;;;;;4899863;29;20399;-84
2023/09/15 14:27:56;;;;;;;28.67;26.48;;;28.70;99.90;;;;;;4900589;29;20141;-85
2023/09/15 14:30:22;;;;;;;28.65;26.58;;;28.70;99.90;;;;;;4881481;29;20029;-85
2023/09/15 14:32:49;;;;;;;29.00;26.67;;;28.80;99.90;;;;;;4881735;29;20024;-85
2023/09/15 14:35:17;;;;;;;28.05;25.92;;;28.90;99.90;;;;;;4882255;29;20068;-83
2023/09/15 14:37:43;;;;;;;28.35;26.30;;;29.00;99.90;;;;;;4890461;29;20025;-84
2023/09/15 14:40:10;;;;;;;28.08;26.15;;;29.00;99.90;;;;;;4881096;29;20050;-85
2023/09/15 14:42:38;;;;;;;28.40;26.30;;;29.00;99.90;;;;;;4881674;29;20021;-85
2023/09/15 14:45:05;;;;;;;28.27;26.17;;;29.00;99.90;;;;;;4866751;29;20028;-85
2023/09/15 14:47:32;;;;;;;28.38;26.33;;;29.00;99.90;;;;;;4882094;29;20442;-86
2023/09/15 14:49:58;;;;;;;28.98;26.73;;;29.10;99.90;;;;;;4882173;29;20516;-84
2023/09/15 14:52:24;;;;;;;27.98;25.73;;;29.10;99.90;;;;;;4882200;29;20032;-85
2023/09/15 14:54:51;;;;;;;28.10;26.08;;;28.90;99.90;;;;;;4882048;29;20051;-83
2023/09/15 14:57:17;;;;;;;28.83;26.23;;;29.00;99.90;;;;;;4887946;29;20389;-85
2023/09/15 14:59:44;;;;;;;27.70;25.38;;;28.80;99.90;;;;;;4897752;29;20040;-87
2023/09/15 15:02:13;;;;;;;27.75;25.55;;;28.90;99.90;;;;;;4882073;29;20050;-86
2023/09/15 15:04:40;;;;;;;27.55;25.42;;;28.70;99.90;;;;;;4882055;29;20072;-85
2023/09/15 15:07:06;;;;;;;28.50;26.13;;;28.50;99.90;;;;;;4898800;29;20029;-86
2023/09/15 15:09:35;;;;;;;27.75;25.58;;;28.70;99.90;;;;;;4866912;29;20036;-86
2023/09/15 15:12:02;;;;;;;27.92;25.73;;;28.80;99.90;;;;;;4882257;29;20545;-87
2023/09/15 15:14:29;;;;;;;28.17;26.08;;;28.60;99.90;;;;;;4882000;29;20056;-85
2023/09/15 15:16:57;;;;;;;27.60;25.77;;;28.30;99.90;;;;;;4881729;29;20505;-85
2023/09/15 15:19:23;;;;;;;28.63;26.40;;;28.30;99.90;;;;;;4897791;29;20128;-87
2023/09/15 15:21:50;;;;;;;29.85;27.30;;;28.40;99.90;;;;;;4881120;29;20029;-84
2023/09/15 15:40:21;;;;;;;27.98;25.98;;;28.10;99.90;;;;;;5138822;23;19946;-87
2023/09/15 15:42:47;;;;;;;28.98;26.67;;;27.90;99.90;;;;;;4866759;29;20035;-88
2023/09/15 15:45:15;;;;;;;29.20;27.10;;;27.90;99.90;;;;;;4866615;29;20471;-88
2023/09/15 15:47:41;;;;;;;28.98;26.60;;;27.90;99.90;;;;;;4866780;29;20029;-87
2023/09/15 15:50:08;;;;;;;28.67;26.38;;;28.00;99.90;;;;;;4863536;29;20025;-90
2023/09/15 15:52:35;;;;;;;28.85;26.85;;;28.00;99.90;;;;;;4878732;29;20123;-88
2023/09/15 15:55:01;;;;;;;28.83;26.83;;;27.90;99.90;;;;;;4863181;29;20040;-88
2023/09/15 15:57:28;;;;;;;29.02;26.75;;;27.80;99.90;;;;;;4878726;29;20025;-85
2023/09/15 15:59:57;;;;;;;29.95;27.48;;;27.70;99.90;;;;;;4863901;29;20101;-88
2023/09/15 16:02:24;;;;;;;30.75;28.42;;;27.60;99.90;;;;;;4863611;29;20442;-86
2023/09/15 16:04:50;;;;;;;31.10;28.75;;;27.50;99.90;;;;;;4862430;29;20128;-87
2023/09/15 16:07:17;;;;;;;32.10;29.38;;;27.40;99.90;;;;;;4862507;29;20028;-87
2023/09/15 16:09:43;;;;;;;31.35;28.85;;;27.20;99.90;;;;;;4866414;29;20037;-86
2023/09/15 16:12:09;;;;;;;30.33;27.95;;;27.20;99.90;;;;;;4847155;29;20163;-87
2023/09/15 16:14:37;;;;;;;30.63;28.20;;;27.10;99.90;;;;;;4862157;29;20033;-86
2023/09/15 16:17:05;;;;;;;30.80;28.27;;;27.10;99.90;;;;;;4862246;29;20037;-87
2023/09/15 16:19:31;;;;;;;30.25;27.98;;;27.00;99.90;;;;;;4860212;29;20053;-88
2023/09/15 16:22:00;;;;;;;32.78;29.73;;;26.90;99.90;;;;;;4877960;29;20044;-87
2023/09/15 16:24:26;;;;;;;30.50;28.10;;;26.80;99.90;;;;;;4877956;29;20115;-86
2023/09/15 16:26:52;;;;;;;31.00;28.75;;;26.80;99.90;;;;;;4877695;29;20040;-88
2023/09/15 16:29:18;;;;;;;29.85;27.40;;;26.70;99.90;;;;;;4877738;29;20032;-87
2023/09/15 16:31:48;;;;;;;31.48;28.73;;;26.60;99.90;;;;;;4878293;29;20041;-87
2023/09/15 16:34:14;;;;;;;30.75;28.17;;;26.50;99.90;;;;;;4879827;29;20136;-88
2023/09/15 16:36:40;;;;;;;30.25;27.85;;;26.50;99.90;;;;;;4881165;29;20041;-87
2023/09/15 16:39:07;;;;;;;31.25;28.58;;;26.50;99.90;;;;;;4880673;29;20643;-88
2023/09/15 16:41:33;;;;;;;31.63;28.67;;;26.40;99.90;;;;;;4865351;29;20542;-88
2023/09/15 16:44:00;;;;;;;30.80;28.02;;;26.20;99.90;;;;;;4865613;29;20033;-87
2023/09/15 16:46:29;;;;;;;31.30;28.83;;;26.20;99.90;;;;;;4865647;29;20059;-88
2023/09/15 16:48:55;;;;;;;32.63;29.55;;;26.20;99.90;;;;;;4865010;29;20036;-87
2023/09/15 16:51:22;;;;;;;30.70;28.35;;;26.20;99.90;;;;;;4880676;29;20173;-87
2023/09/15 16:53:48;;;;;;;30.90;28.30;;;26.10;99.90;;;;;;4865404;29;20116;-88
2023/09/15 16:56:15;;;;;;;30.08;27.27;;;26.00;99.90;;;;;;4849656;29;20037;-87
2023/09/15 16:58:41;;;;;;;30.23;27.60;;;26.00;99.90;;;;;;4865050;29;20035;-87
2023/09/15 17:01:08;;;;;;;31.95;29.25;;;26.00;99.90;;;;;;4865916;29;20029;-88
2023/09/15 17:03:34;;;;;;;30.80;28.08;;;25.90;99.90;;;;;;4865249;29;20045;-87
2023/09/15 17:06:01;;;;;;;30.48;27.92;;;25.90;99.90;;;;;;4866137;29;20033;-87
2023/09/15 17:08:30;;;;;;;30.48;27.98;;;25.80;99.90;;;;;;4865832;29;20039;-88
2023/09/15 17:11:03;;;;;;;29.23;26.77;;;25.80;99.90;;;;;;4881021;29;20403;-83
2023/09/15 17:13:32;;;;;;;;;;;25.70;99.90;;;;;;4882191;29;20059;-90
2023/09/15 17:15:58;;;;;;;27.77;25.48;;;25.80;99.90;;;;;;4858386;29;19955;-89
2023/09/15 17:18:25;;;;;;;27.38;25.15;;;25.70;99.90;;;;;;4865987;29;20073;-90
2023/09/15 17:20:51;;;;;;;26.92;24.58;;;25.70;99.90;;;;;;4867664;29;20040;-91
2023/09/15 17:23:17;;;;;;;26.77;24.42;;;25.60;99.90;;;;;;4851929;29;20056;-91
2023/09/15 17:25:44;;;;;;;26.25;24.08;;;25.60;99.90;;;;;;4866098;29;20029;-90
2023/09/15 17:28:11;;;;;;;26.17;24.00;;;25.50;99.90;;;;;;4850335;29;20033;-90
2023/09/15 17:30:37;;;;;;;27.00;24.70;;;25.50;99.90;;;;;;4867664;29;20033;-90
2023/09/15 17:33:04;;;;;;;26.52;24.15;;;25.40;99.90;;;;;;4868950;29;20041;-89
2023/09/15 17:35:30;;;;;;;26.33;23.98;;;25.40;99.90;;;;;;4870149;29;20037;-89
2023/09/15 17:37:57;;;;;;;24.77;22.55;;;25.40;99.90;;;;;;4885588;29;20048;-89
2023/09/15 17:40:23;;;;;;;24.10;21.98;;;25.30;99.90;;;;;;4869137;29;20087;-89
2023/09/15 17:42:50;;;;;;;24.40;22.27;;;25.40;99.90;;;;;;4853626;29;20096;-89
2023/09/15 17:45:21;;;;;;;24.98;22.40;;;25.30;99.90;;;;;;4869052;29;20043;-89
2023/09/15 17:47:48;;;;;;;25.58;23.05;;;25.30;99.90;;;;;;4884286;29;20033;-89
2023/09/15 17:50:15;;;;;;;24.10;22.10;;;25.10;99.90;;;;;;4867340;29;20036;-89
2023/09/15 17:52:42;;;;;;;23.52;21.35;;;25.10;99.90;;;;;;4883773;29;20037;-89
2023/09/15 17:55:10;;;;;;;24.85;22.65;;;25.10;99.90;;;;;;4868533;29;20033;-89
2023/09/15 17:57:45;;;;;;;24.25;22.35;;;25.00;99.90;;;;;;4868091;29;20029;-90
2023/09/15 18:00:14;;;;;;;28.23;24.85;;;24.90;99.90;;;;;;4883420;29;20041;-88
2023/09/15 18:02:42;;;;;;;25.55;23.10;;;24.70;99.90;;;;;;4868721;29;20085;-89
2023/09/15 18:05:10;;;;;;;26.25;23.77;;;24.70;99.90;;;;;;4853564;29;20044;-89
2023/09/15 18:07:40;;;;;;;27.50;24.50;;;24.70;99.90;;;;;;4867946;29;20036;-89
2023/09/15 18:10:08;;;;;;;29.20;26.17;;;24.70;99.90;;;;;;4862861;29;20061;-89
2023/09/15 18:12:35;;;;;;;29.38;25.35;;;24.70;99.90;;;;;;4868032;29;20123;-89
2023/09/15 18:15:03;;;;;;;26.98;24.23;;;24.80;99.90;;;;;;4853424;29;20045;-89
2023/09/15 18:17:30;;;;;;;26.02;23.45;;;24.80;99.90;;;;;;4868440;29;20136;-89
2023/09/15 18:19:57;;;;;;;28.25;23.58;;;24.80;99.90;;;;;;4871787;29;20033;-90
2023/09/15 18:22:23;;;;;;;23.80;21.38;;;24.80;99.90;;;;;;4868475;29;20443;-89
2023/09/15 18:24:52;;;;;;;23.02;20.48;;;24.80;99.90;;;;;;4852879;29;20414;-90
2023/09/15 18:27:19;;;;;;;23.48;21.13;;;24.90;99.90;;;;;;4867805;29;20057;-88
2023/09/15 18:29:45;;;;;;;22.42;20.50;;;24.90;99.90;;;;;;4869745;29;20173;-91
2023/09/15 18:32:12;;;;;;;25.80;21.35;;;24.90;99.90;;;;;;4867908;29;20025;-89
2023/09/15 18:34:38;;;;;;;23.20;20.75;;;24.90;99.90;;;;;;4867306;29;20080;-91
2023/09/15 18:37:04;;;;;;;23.20;20.88;;;24.90;99.90;;;;;;4866157;29;20057;-88
2023/09/15 18:39:32;;;;;;;23.45;20.73;;;24.90;99.90;;;;;;4864487;29;20525;-87
2023/09/15 18:41:59;;;;;;;21.95;19.95;;;24.90;99.90;;;;;;4851679;29;20085;-86
2023/09/15 18:44:25;;;;;;;22.30;20.20;;;24.90;99.90;;;;;;4865320;29;20112;-85
2023/09/15 18:46:52;;;;;;;23.05;20.95;;;24.80;99.90;;;;;;4864585;29;20052;-85
2023/09/15 18:49:19;;;;;;;22.42;20.23;;;24.70;99.90;;;;;;4882359;29;20073;-89
2023/09/15 18:51:45;;;;;;;21.55;19.77;;;24.70;99.90;;;;;;4865221;29;20490;-85
2023/09/15 18:54:12;;;;;;;25.17;21.70;;;24.60;99.90;;;;;;4849606;29;20045;-89
2023/09/15 18:56:39;;;;;;;23.50;21.08;;;24.60;99.90;;;;;;4866328;29;20029;-90
2023/09/15 18:59:05;;;;;;;26.23;20.73;;;24.60;99.90;;;;;;4864978;29;20033;-91
2023/09/15 19:01:31;;;;;;;22.77;20.75;;;24.50;99.90;;;;;;4870946;29;20040;-91
2023/09/15 19:03:58;;;;;;;24.70;22.15;;;24.50;99.90;;;;;;4851175;29;20029;-90
2023/09/15 19:06:24;;;;;;;26.73;23.70;;;24.50;99.90;;;;;;4865530;29;20112;-87
2023/09/15 19:08:51;;;;;;;25.35;22.08;;;24.50;99.90;;;;;;4849975;29;20116;-89
2023/09/15 19:11:17;;;;;;;24.98;22.38;;;24.50;99.90;;;;;;4879107;29;20033;-88
2023/09/15 19:13:43;;;;;;;25.50;21.83;;;24.40;99.90;;;;;;4881997;29;20029;-83
2023/09/15 19:16:17;;;;;;;24.83;21.63;;;24.40;99.90;;;;;;4880729;29;20120;-86
2023/09/15 19:18:46;;;;;;;23.77;21.30;;;24.40;99.90;;;;;;4879464;29;20055;-85
2023/09/15 19:21:12;;;;;;;24.52;22.35;;;24.40;99.90;;;;;;4878685;29;20037;-90
2023/09/15 19:23:39;;;;;;;25.80;22.20;;;24.30;99.90;;;;;;4880073;29;20081;-88
2023/09/15 19:26:07;;;;;;;23.98;21.52;;;24.20;99.90;;;;;;4864374;29;20033;-87
2023/09/15 19:28:34;;;;;;;23.67;21.23;;;24.20;99.90;;;;;;4863970;29;20085;-86
2023/09/15 19:31:01;;;;;;;23.92;21.50;;;24.20;99.90;;;;;;4879895;29;20520;-88
2023/09/15 19:33:31;;;;;;;23.35;21.27;;;24.20;99.90;;;;;;4879492;29;20506;-86
2023/09/15 19:35:58;;;;;;;22.40;20.30;;;24.10;99.90;;;;;;4863891;29;20132;-86
2023/09/15 19:38:24;;;;;;;22.80;20.70;;;24.10;99.90;;;;;;4879333;29;20029;-87
2023/09/15 19:40:51;;;;;;;24.40;22.02;;;24.10;99.90;;;;;;4873970;29;20502;-86
2023/09/15 19:43:18;;;;;;;23.50;20.33;;;24.10;99.90;;;;;;4864214;29;20037;-87
2023/09/15 19:45:51;;;;;;;22.25;19.98;;;24.20;99.90;;;;;;4864406;29;20031;-87
2023/09/15 19:48:17;;;;;;;23.63;20.88;;;24.10;99.90;;;;;;4863959;29;20129;-87
2023/09/15 19:50:45;;;;;;;22.15;20.15;;;24.00;99.90;;;;;;4855619;29;20085;-87
2023/09/15 19:53:12;;;;;;;25.90;20.58;;;24.00;99.90;;;;;;4864649;29;20037;-88
2023/09/15 19:55:42;;;;;;;21.70;19.48;;;24.00;99.90;;;;;;4864352;29;20069;-86
2023/09/15 19:58:08;;;;;;;22.70;19.80;;;24.00;99.90;;;;;;4864968;29;20032;-87
2023/09/15 20:00:35;;;;;;;23.00;20.73;;;24.10;99.90;;;;;;4872063;29;20031;-88
2023/09/15 20:03:05;;;;;;;22.50;20.40;;;24.10;99.90;;;;;;4864783;29;20406;-90
2023/09/15 20:05:32;;;;;;;26.38;21.50;;;24.00;99.90;;;;;;4865115;29;20115;-87
2023/09/15 20:07:59;;;;;;;23.13;20.95;;;23.90;99.90;;;;;;4865293;29;20112;-89
2023/09/15 20:10:26;;;;;;;23.23;20.40;;;23.90;99.90;;;;;;4850079;29;20038;-88
2023/09/15 20:12:53;;;;;;;23.30;20.95;;;23.90;99.90;;;;;;4849492;29;20058;-88
2023/09/15 20:15:19;;;;;;;22.15;20.00;;;23.90;99.90;;;;;;4849241;29;20363;-87
2023/09/15 20:17:46;;;;;;;22.77;20.58;;;24.00;99.90;;;;;;4864876;29;20025;-87
2023/09/15 20:20:17;;;;;;;23.02;20.38;;;24.00;99.90;;;;;;4848572;29;20049;-87
2023/09/15 20:22:44;;;;;;;21.55;19.42;;;24.00;99.90;;;;;;4865312;29;20077;-88
2023/09/15 20:25:11;;;;;;;25.75;21.42;;;23.90;99.90;;;;;;4848919;29;20029;-87
2023/09/15 20:27:46;;;;;;;26.08;22.25;;;23.90;99.90;;;;;;4848753;29;20061;-85
2023/09/15 20:30:13;;;;;;;27.90;22.48;;;23.80;99.90;;;;;;4863647;29;20034;-87
2023/09/15 20:32:42;;;;;;;24.05;21.55;;;23.90;99.90;;;;;;4863734;29;20029;-87
2023/09/15 20:35:09;;;;;;;23.20;20.73;;;23.90;99.90;;;;;;4863638;29;20385;-86
2023/09/15 20:37:35;;;;;;;22.50;20.40;;;23.90;99.90;;;;;;4864711;29;20021;-86
2023/09/15 20:40:02;;;;;;;30.02;20.92;;;23.90;99.90;;;;;;4863131;29;20117;-85
2023/09/15 20:42:31;;;;;;;22.70;20.48;;;23.90;99.90;;;;;;4863127;29;20048;-86
2023/09/15 20:44:58;;;;;;;21.80;19.80;;;23.90;99.90;;;;;;4847870;29;20029;-88
2023/09/15 20:47:24;;;;;;;23.27;19.48;;;23.80;99.90;;;;;;4848451;29;20037;-87
2023/09/15 20:49:50;;;;;;;21.98;19.85;;;23.70;99.90;;;;;;4867276;29;20033;-85
2023/09/15 20:52:17;;;;;;;23.83;20.70;;;23.70;99.90;;;;;;4881254;29;20036;-86
2023/09/15 20:54:43;;;;;;;26.10;20.33;;;23.60;99.90;;;;;;4850632;29;20073;-86
2023/09/15 20:57:10;;;;;;;22.33;20.08;;;23.60;99.90;;;;;;4866391;29;20126;-92
2023/09/15 20:59:36;;;;;;;26.60;21.33;;;23.60;99.90;;;;;;4852728;29;20044;-85
2023/09/15 21:02:02;;;;;;;22.08;19.83;;;23.60;99.90;;;;;;4881732;29;20479;-86
2023/09/15 21:04:29;;;;;;;23.25;19.55;;;23.60;99.90;;;;;;4866774;29;20029;-88
2023/09/15 21:06:55;;;;;;;23.13;19.83;;;23.60;99.90;;;;;;4867444;29;20029;-87
2023/09/15 21:09:22;;;;;;;21.58;19.38;;;23.60;99.90;;;;;;4869435;29;20036;-91
2023/09/15 21:11:48;;;;;;;22.67;19.63;;;23.50;99.90;;;;;;4868631;29;20037;-86
2023/09/15 21:14:14;;;;;;;20.85;18.65;;;23.50;99.90;;;;;;4867651;29;20037;-88
2023/09/15 21:38:17;;;;;;;25.85;20.95;;;23.40;99.90;;;;;;5206879;23;20060;-91
2023/09/15 21:40:49;;;;;;;23.25;20.27;;;23.40;99.90;;;;;;4872651;29;20088;-92
2023/09/15 21:43:17;;;;;;;21.85;19.50;;;23.30;99.90;;;;;;4855734;29;20052;-92
2023/09/15 21:45:43;;;;;;;22.33;20.10;;;23.30;99.90;;;;;;4868219;29;20098;-88
2023/09/15 21:48:10;;;;;;;22.75;19.90;;;23.30;99.90;;;;;;4865826;29;20037;-87
2023/09/15 21:50:39;;;;;;;23.08;19.35;;;23.30;99.90;;;;;;4851440;29;20041;-92
2023/09/15 21:53:07;;;;;;;23.98;20.40;;;23.20;99.90;;;;;;4870154;29;20033;-91
2023/09/15 22:19:53;;;;;;;22.40;20.05;;;23.30;99.90;;;;;;5632688;23;20493;-87
2023/09/15 22:22:19;;;;;;;22.55;20.27;;;23.40;99.90;;;;;;4867213;29;20024;-90
2023/09/15 22:24:46;;;;;;;29.27;20.83;;;23.50;99.90;;;;;;4883371;29;20087;-87
2023/09/15 22:27:13;;;;;;;27.20;21.17;;;23.50;99.90;;;;;;4866927;29;20045;-87
2023/09/15 22:29:40;;;;;;;26.83;20.98;;;23.50;99.90;;;;;;4865177;29;20028;-87
2023/09/15 22:32:06;;;;;;;22.50;20.20;;;23.50;99.90;;;;;;4847758;29;20033;-86
2023/09/15 22:34:33;;;;;;;26.00;20.00;;;23.50;99.90;;;;;;4848193;29;20033;-87
2023/09/15 22:37:01;;;;;;;25.38;19.63;;;23.50;99.90;;;;;;4863535;29;20089;-87
2023/09/15 22:39:29;;;;;;;22.45;20.13;;;23.50;99.90;;;;;;4848057;29;20052;-87
2023/09/15 22:41:56;;;;;;;22.25;19.60;;;23.40;99.90;;;;;;4863328;29;20040;-87
2023/09/15 22:44:22;;;;;;;22.80;19.35;;;23.30;99.90;;;;;;4848181;29;20421;-87
2023/09/15 22:46:50;;;;;;;23.73;21.23;;;23.30;99.90;;;;;;4863568;29;20052;-87
2023/09/15 22:49:18;;;;;;;25.98;21.85;;;23.20;99.90;;;;;;4848369;29;20144;-87
2023/09/15 22:51:45;;;;;;;25.63;22.00;;;23.20;99.90;;;;;;4881409;29;20032;-87
2023/09/15 22:54:13;;;;;;;24.35;21.50;;;23.10;99.90;;;;;;4866442;29;20168;-87
2023/09/15 22:56:42;;;;;;;26.98;21.73;;;23.10;99.90;;;;;;4881712;29;20032;-88
2023/09/15 22:59:09;;;;;;;28.98;22.58;;;23.00;99.90;;;;;;4881761;29;20115;-88
2023/09/15 23:01:36;;;;;;;24.20;21.23;;;23.00;99.90;;;;;;4882239;29;20032;-87
2023/09/15 23:04:02;;;;;;;28.85;22.88;;;23.00;99.90;;;;;;4866102;29;20083;-87
2023/09/15 23:06:28;;;;;;;27.48;21.45;;;22.90;99.90;;;;;;4881912;29;20033;-87
2023/09/15 23:08:55;;;;;;;25.05;21.90;;;22.90;99.90;;;;;;4866240;29;20108;-87
2023/09/15 23:11:22;;;;;;;30.02;22.27;;;23.00;99.90;;;;;;4881449;29;20040;-87
2023/09/15 23:13:48;;;;;;;27.40;22.25;;;23.00;99.90;;;;;;4866110;29;20028;-87
2023/09/15 23:16:15;;;;;;;33.22;24.77;;;23.00;99.90;;;;;;4881299;29;20049;-87
2023/09/15 23:18:42;;;;;;;27.90;23.50;;;23.00;99.90;;;;;;4881298;29;20029;-87
2023/09/15 23:21:08;;;;;;;30.52;24.45;;;23.10;99.90;;;;;;4881750;29;20140;-87
2023/09/15 23:23:35;;;;;;;32.22;25.52;;;23.10;99.90;;;;;;4881553;29;20028;-87
2023/09/15 23:26:01;;;;;;;38.40;25.25;;;23.10;99.90;;;;;;4866143;29;20032;-87
2023/09/15 23:28:27;;;;;;;36.25;24.13;;;23.20;99.90;;;;;;4881402;29;20027;-87
2023/09/15 23:30:54;;;;;;;30.73;24.40;;;23.20;99.90;;;;;;4881574;29;20402;-86
2023/09/15 23:33:21;;;;;;;32.58;24.05;;;23.20;99.90;;;;;;4881341;29;20036;-87
2023/09/15 23:35:48;;;;;;;31.85;24.42;;;23.10;99.90;;;;;;4881285;29;20063;-87
2023/09/15 23:38:14;;;;;;;28.45;22.70;;;23.10;99.90;;;;;;4881272;29;20485;-87
2023/09/15 23:40:44;;;;;;;27.40;20.88;;;23.00;99.90;;;;;;4881429;29;20451;-87
2023/09/15 23:43:11;;;;;;;27.25;21.77;;;22.80;99.90;;;;;;4881943;29;20035;-88
2023/09/15 23:45:37;;;;;;;23.70;21.02;;;22.80;99.90;;;;;;4885373;29;20181;-87
2023/09/15 23:48:04;;;;;;;27.52;20.83;;;22.70;99.90;;;;;;4885066;29;20029;-87
2023/09/15 23:50:30;;;;;;;30.45;21.67;;;22.60;99.90;;;;;;4885386;29;20478;-87
2023/09/15 23:52:57;;;;;;;26.40;21.85;;;22.50;99.90;;;;;;4884763;29;20033;-87
2023/09/15 23:55:23;;;;;;;29.42;22.23;;;22.50;99.90;;;;;;4884840;29;20044;-88
2023/09/15 23:57:50;;;;;;;25.25;21.08;;;22.50;99.90;;;;;;4885067;29;20122;-87
